createdAt,value
2022-07-29T00:00:55.563Z,99034.35
2022-07-29T00:03:24.466Z,99036.30
2022-07-29T00:05:54.890Z,99036.82
2022-07-29T00:08:24.584Z,99030.94
2022-07-29T00:10:54.815Z,99031.20
2022-07-29T00:13:32.278Z,99035.02
2022-07-29T00:16:04.410Z,99037.63
2022-07-29T00:18:34.828Z,99039.02
2022-07-29T00:21:03.894Z,99038.46
2022-07-29T00:23:36.477Z,99034.48
2022-07-29T00:26:06.471Z,99031.77
2022-07-29T00:28:35.019Z,99036.07
2022-07-29T00:31:03.716Z,99034.80
2022-07-29T00:33:33.372Z,99033.42
2022-07-29T00:36:02.220Z,99036.02
2022-07-29T00:38:31.555Z,99039.55
2022-07-29T00:41:01.114Z,99036.97
2022-07-29T00:43:30.571Z,99040.35
2022-07-29T00:45:59.240Z,99037.27
2022-07-29T00:48:30.075Z,99031.30
2022-07-29T00:51:00.532Z,99024.42
2022-07-29T00:53:31.096Z,99019.80
2022-07-29T00:56:00.534Z,99013.89
2022-07-29T00:58:29.951Z,99012.64
2022-07-29T01:00:59.614Z,99015.09
2022-07-29T01:03:28.401Z,99020.20
2022-07-29T01:05:57.457Z,99020.48
2022-07-29T01:08:27.580Z,99019.23
2022-07-29T01:10:56.876Z,99018.27
2022-07-29T01:13:27.095Z,99019.52
2022-07-29T01:16:05.284Z,99019.52
2022-07-29T01:18:39.537Z,99017.61
2022-07-29T01:21:46.339Z,99018.50
2022-07-29T01:24:38.754Z,99011.99
2022-07-29T01:27:45.637Z,99007.96
2022-07-29T01:30:15.654Z,99001.20
2022-07-29T01:32:49.663Z,98991.27
2022-07-29T01:35:39.236Z,98990.73
2022-07-29T01:38:15.602Z,98982.64
2022-07-29T01:40:55.496Z,98982.41
2022-07-29T01:43:39.125Z,98980.60
2022-07-29T01:46:13.315Z,98973.35
2022-07-29T01:48:59.071Z,98969.64
2022-07-29T01:51:34.620Z,98962.27
2022-07-29T01:54:22.171Z,98960.98
2022-07-29T01:56:53.216Z,98961.30
2022-07-29T01:59:23.311Z,98958.50
2022-07-29T02:01:55.072Z,98960.25
2022-07-29T02:04:29.498Z,98960.98
2022-07-29T02:07:06.844Z,98957.19
2022-07-29T02:09:38.343Z,98952.96
2022-07-29T02:12:08.670Z,98948.95
2022-07-29T02:14:46.152Z,98951.89
2022-07-29T02:17:17.696Z,98945.06
2022-07-29T02:19:48.088Z,98942.55
2022-07-29T02:22:18.043Z,98938.42
2022-07-29T02:24:50.226Z,98936.95
2022-07-29T02:27:21.268Z,98940.69
2022-07-29T02:29:53.063Z,98948.62
2022-07-29T02:32:23.953Z,98949.74
2022-07-29T02:34:54.238Z,98952.08
2022-07-29T02:37:24.204Z,98950.02
2022-07-29T02:39:55.394Z,98949.17
2022-07-29T02:42:28.037Z,98947.80
2022-07-29T02:44:57.750Z,98948.14
2022-07-29T02:47:41.578Z,98939.38
2022-07-29T02:50:17.244Z,98944.09
2022-07-29T02:52:56.525Z,98945.48
2022-07-29T02:55:47.561Z,98950.68
2022-07-29T02:58:30.305Z,98947.16
2022-07-29T03:01:21.743Z,98953.10
2022-07-29T03:03:55.041Z,98950.31
2022-07-29T03:06:37.618Z,98949.77
2022-07-29T03:09:13.517Z,98950.90
2022-07-29T03:11:49.805Z,98954.39
2022-07-29T03:14:21.137Z,98947.95
2022-07-29T03:16:51.706Z,98950.74
2022-07-29T03:19:21.683Z,98956.55
2022-07-29T03:21:50.417Z,98954.77
2022-07-29T03:24:50.557Z,98953.02
2022-07-29T03:27:19.835Z,98952.23
2022-07-29T03:29:50.013Z,98951.27
2022-07-29T03:32:23.784Z,98950.33
2022-07-29T03:34:54.111Z,98950.10
2022-07-29T03:37:23.039Z,98955.87
2022-07-29T03:39:53.870Z,98954.27
2022-07-29T03:42:31.098Z,98959.48
2022-07-29T03:45:09.317Z,98964.55
2022-07-29T03:47:50.584Z,98962.98
2022-07-29T03:50:23.297Z,98969.45
2022-07-29T03:52:52.715Z,98967.84
2022-07-29T03:55:21.905Z,98969.52
2022-07-29T03:57:52.625Z,98969.09
2022-07-29T04:00:21.921Z,98971.81
2022-07-29T04:02:50.982Z,98975.77
2022-07-29T04:05:21.108Z,98974.14
2022-07-29T04:07:50.348Z,98969.71
2022-07-29T04:10:26.878Z,98969.28
2022-07-29T04:13:01.647Z,98967.60
2022-07-29T04:15:31.381Z,98966.83
2022-07-29T04:18:00.849Z,98966.52
2022-07-29T04:20:30.781Z,98967.42
2022-07-29T04:22:59.771Z,98965.99
2022-07-29T04:25:28.550Z,98967.16
2022-07-29T04:28:04.430Z,98967.03
2022-07-29T04:30:35.048Z,98960.34
2022-07-29T04:33:06.479Z,98960.10
2022-07-29T04:35:38.632Z,98957.38
2022-07-29T04:38:15.690Z,98957.70
2022-07-29T04:40:46.837Z,98957.16
2022-07-29T04:43:17.167Z,98963.92
2022-07-29T04:45:51.748Z,98971.67
2022-07-29T04:48:25.328Z,98975.36
2022-07-29T04:50:58.229Z,98978.53
2022-07-29T04:53:29.184Z,98982.75
2022-07-29T04:55:58.095Z,98984.20
2022-07-29T04:58:27.770Z,98979.63
2022-07-29T05:00:58.401Z,98978.50
2022-07-29T05:03:27.401Z,98973.48
2022-07-29T05:05:56.085Z,98973.35
2022-07-29T05:08:25.496Z,98968.63
2022-07-29T05:10:54.178Z,98962.57
2022-07-29T05:13:23.267Z,98964.32
2022-07-29T05:15:52.136Z,98966.08
2022-07-29T05:18:21.459Z,98964.55
2022-07-29T05:20:55.818Z,98958.48
2022-07-29T05:23:24.766Z,98962.31
2022-07-29T05:25:53.469Z,98963.77
2022-07-29T05:28:22.858Z,98967.06
2022-07-29T05:30:51.601Z,98964.22
2022-07-29T05:33:35.296Z,98961.58
2022-07-29T05:36:09.620Z,98969.00
2022-07-29T05:38:38.402Z,98973.38
2022-07-29T05:41:07.889Z,98974.37
2022-07-29T05:43:36.870Z,98976.00
2022-07-29T05:46:05.704Z,98975.23
2022-07-29T05:48:34.626Z,98974.09
2022-07-29T05:51:03.693Z,98973.16
2022-07-29T05:53:32.367Z,98977.55
2022-07-29T05:56:05.790Z,98980.60
2022-07-29T05:58:34.527Z,98976.98
2022-07-29T06:01:04.025Z,98975.38
2022-07-29T06:03:32.963Z,98977.39
2022-07-29T06:06:01.738Z,98979.30
2022-07-29T06:08:30.831Z,98975.22
2022-07-29T06:10:59.806Z,98975.89
2022-07-29T06:13:28.516Z,98976.28
2022-07-29T06:15:57.851Z,98983.90
2022-07-29T06:18:28.641Z,98984.03
2022-07-29T06:20:57.477Z,98986.55
2022-07-29T06:23:26.551Z,98987.58
2022-07-29T06:25:55.429Z,98990.39
2022-07-29T06:28:24.436Z,98997.29
2022-07-29T06:30:53.933Z,98985.55
2022-07-29T06:33:22.999Z,98987.35
2022-07-29T06:35:53.154Z,98983.08
2022-07-29T06:38:31.798Z,98983.15
2022-07-29T06:41:03.452Z,98980.78
2022-07-29T06:43:35.741Z,98983.50
2022-07-29T06:46:21.434Z,98988.19
2022-07-29T06:48:53.050Z,98991.47
2022-07-29T06:51:23.907Z,98992.92
2022-07-29T06:54:00.633Z,98989.86
2022-07-29T06:56:43.014Z,98986.70
2022-07-29T06:59:13.881Z,98984.00
2022-07-29T07:01:44.176Z,98979.81
2022-07-29T07:04:15.342Z,98979.08
2022-07-29T07:06:44.238Z,98979.30
2022-07-29T07:09:12.730Z,98983.88
2022-07-29T07:11:42.202Z,98976.41
2022-07-29T07:14:10.817Z,98975.24
2022-07-29T07:16:39.433Z,98979.65
2022-07-29T07:19:09.754Z,98979.23
2022-07-29T07:21:38.349Z,98977.05
2022-07-29T07:24:07.717Z,98981.00
2022-07-29T07:26:37.954Z,98972.55
2022-07-29T07:29:07.249Z,98970.34
2022-07-29T07:31:36.938Z,98977.46
2022-07-29T07:34:06.968Z,98978.36
2022-07-29T07:36:35.758Z,98980.61
2022-07-29T07:39:06.803Z,98985.91
2022-07-29T07:41:35.766Z,98989.88
2022-07-29T07:45:12.018Z,98985.30
2022-07-29T07:47:12.442Z,98988.42
2022-07-29T07:49:41.715Z,98990.85
2022-07-29T07:52:10.681Z,98998.24
2022-07-29T07:54:39.399Z,98993.38
2022-07-29T07:57:08.247Z,98995.39
2022-07-29T07:59:36.976Z,98991.55
2022-07-29T08:02:06.151Z,98991.71
2022-07-29T08:04:40.529Z,98987.89
2022-07-29T08:07:11.594Z,98985.59
2022-07-29T08:09:40.574Z,98981.10
2022-07-29T08:12:10.048Z,98986.41
2022-07-29T08:14:39.140Z,98979.88
2022-07-29T08:17:07.864Z,98985.59
2022-07-29T08:19:36.516Z,98987.37
2022-07-29T08:22:07.781Z,98990.31
2022-07-29T08:24:47.543Z,98989.26
2022-07-29T08:27:41.762Z,98990.48
2022-07-29T08:30:05.690Z,98992.05
2022-07-29T08:32:53.039Z,98995.55
2022-07-29T08:35:26.736Z,98995.00
2022-07-29T08:37:58.679Z,98997.84
2022-07-29T08:40:32.198Z,98997.38
2022-07-29T08:43:09.949Z,98998.73
2022-07-29T08:45:56.975Z,98998.82
2022-07-29T08:48:26.219Z,98998.69
2022-07-29T08:50:57.399Z,98996.48
2022-07-29T08:53:28.619Z,98993.23
2022-07-29T08:55:58.286Z,98989.11
2022-07-29T08:58:32.710Z,98992.27
2022-07-29T09:01:36.393Z,98995.98
2022-07-29T09:04:13.401Z,98988.70
2022-07-29T09:06:49.102Z,98987.16
2022-07-29T09:09:18.611Z,98985.22
2022-07-29T09:11:48.242Z,98987.27
2022-07-29T09:14:16.910Z,98986.83
2022-07-29T09:16:59.652Z,98986.38
2022-07-29T09:19:36.150Z,98981.89
2022-07-29T09:22:10.871Z,98979.65
2022-07-29T09:24:45.219Z,98981.35
2022-07-29T09:27:27.863Z,98982.69
2022-07-29T09:30:07.821Z,98985.41
2022-07-29T09:32:55.145Z,98984.60
2022-07-29T09:35:26.614Z,98983.39
2022-07-29T09:37:56.270Z,98983.58
2022-07-29T09:40:29.249Z,98981.80
2022-07-29T09:42:58.879Z,98983.14
2022-07-29T09:45:34.516Z,98980.26
2022-07-29T09:48:20.271Z,98977.88
2022-07-29T09:50:52.569Z,98974.03
2022-07-29T09:53:41.265Z,98975.55
2022-07-29T09:56:14.836Z,98971.67
2022-07-29T09:58:44.158Z,98966.95
2022-07-29T10:01:17.531Z,98964.56
2022-07-29T10:03:55.780Z,98973.16
2022-07-29T10:06:26.712Z,98973.02
2022-07-29T10:08:56.416Z,98967.33
2022-07-29T10:11:48.137Z,98960.61
2022-07-29T10:14:31.216Z,98961.81
2022-07-29T10:17:02.744Z,98959.61
2022-07-29T10:19:32.907Z,98959.77
2022-07-29T10:22:04.431Z,98955.16
2022-07-29T10:24:36.061Z,98955.27
2022-07-29T10:27:08.757Z,98953.34
2022-07-29T10:29:38.179Z,98952.88
2022-07-29T10:32:34.879Z,98950.47
2022-07-29T10:35:11.302Z,98950.65
2022-07-29T10:38:18.096Z,98943.83
2022-07-29T10:41:32.032Z,98941.89
2022-07-29T10:44:19.306Z,98945.72
2022-07-29T10:46:53.102Z,98946.40
2022-07-29T10:49:30.373Z,98941.46
2022-07-29T10:52:08.578Z,98946.02
2022-07-29T10:54:42.474Z,98937.77
2022-07-29T10:57:12.994Z,98934.77
2022-07-29T10:59:43.836Z,98936.52
2022-07-29T11:02:41.313Z,98937.20
2022-07-29T11:05:23.018Z,98937.66
2022-07-29T11:08:19.630Z,98937.48
2022-07-29T11:10:50.259Z,98935.31
2022-07-29T11:13:52.371Z,98936.05
2022-07-29T11:16:25.326Z,98936.14
2022-07-29T11:19:13.162Z,98936.66
2022-07-29T11:21:54.007Z,98936.72
2022-07-29T11:24:30.442Z,98930.40
2022-07-29T11:27:14.803Z,98931.21
2022-07-29T11:29:53.510Z,98934.27
2022-07-29T11:32:24.644Z,98931.61
2022-07-29T11:35:27.693Z,98930.90
2022-07-29T11:38:28.120Z,98938.31
2022-07-29T11:41:27.751Z,98936.38
2022-07-29T11:44:02.854Z,98942.09
2022-07-29T11:49:48.176Z,98933.79
2022-07-29T11:52:17.306Z,98931.23
2022-07-29T11:54:58.255Z,98927.48
2022-07-29T11:57:37.162Z,98926.56
2022-07-29T12:00:14.528Z,98918.44
2022-07-29T12:02:48.721Z,98913.27
2022-07-29T12:05:35.857Z,98912.56
2022-07-29T12:07:03.694Z,98936.46
2022-07-29T12:08:20.371Z,98914.55
2022-07-29T12:10:52.230Z,98912.51
2022-07-29T12:13:23.036Z,98906.48
2022-07-29T12:16:07.185Z,98901.58
2022-07-29T12:18:35.842Z,98898.04
2022-07-29T12:21:06.122Z,98898.81
2022-07-29T12:23:35.760Z,98902.26
2022-07-29T12:26:10.541Z,98896.83
2022-07-29T12:28:40.363Z,98899.20
2022-07-29T12:31:43.278Z,98894.97
2022-07-29T12:34:09.035Z,98885.60
2022-07-29T12:36:38.792Z,98880.20
2022-07-29T12:39:07.629Z,98880.44
2022-07-29T12:41:40.519Z,98882.32
2022-07-29T12:44:09.121Z,98878.88
2022-07-29T12:46:38.292Z,98882.57
2022-07-29T12:49:08.780Z,98881.80
2022-07-29T12:51:40.333Z,98883.94
2022-07-29T12:54:14.887Z,98881.23
2022-07-29T12:56:45.617Z,98881.41
2022-07-29T12:59:23.173Z,98875.82
2022-07-29T13:01:54.310Z,98875.34
2022-07-29T13:04:31.350Z,98872.88
2022-07-29T13:07:02.023Z,98867.39
2022-07-29T13:09:39.940Z,98866.33
2022-07-29T13:12:13.666Z,98872.73
2022-07-29T13:14:45.573Z,98871.70
2022-07-29T13:17:17.818Z,98865.35
2022-07-29T13:19:47.882Z,98856.53
2022-07-29T13:22:19.216Z,98858.07
2022-07-29T13:25:04.991Z,98859.90
2022-07-29T13:27:37.581Z,98858.23
2022-07-29T13:30:11.110Z,98851.11
2022-07-29T13:32:40.649Z,98853.65
2022-07-29T13:35:11.221Z,98850.09
2022-07-29T13:37:39.918Z,98851.92
2022-07-29T13:40:10.449Z,98847.33
2022-07-29T13:42:40.228Z,98845.59
2022-07-29T13:45:10.136Z,98845.93
2022-07-29T13:47:40.980Z,98843.42
2022-07-29T13:50:11.953Z,98844.27
2022-07-29T13:52:40.583Z,98843.30
2022-07-29T13:55:09.806Z,98844.35
2022-07-29T13:57:39.273Z,98837.69
2022-07-29T14:00:08.598Z,98832.64
2022-07-29T14:02:38.899Z,98830.16
2022-07-29T14:05:09.014Z,98832.36
2022-07-29T14:07:40.206Z,98833.14
2022-07-29T14:10:10.576Z,98838.58
2022-07-29T14:12:39.577Z,98839.94
2022-07-29T14:18:05.675Z,98836.42
2022-07-29T14:20:58.905Z,98831.79
2022-07-29T14:23:56.607Z,98828.38
2022-07-29T14:26:26.042Z,98824.29
2022-07-29T14:28:56.267Z,98820.48
2022-07-29T14:31:24.813Z,98819.08
2022-07-29T14:33:53.547Z,98819.99
2022-07-29T14:36:22.201Z,98820.75
2022-07-29T14:38:51.164Z,98820.02
2022-07-29T14:41:19.952Z,98814.65
2022-07-29T14:43:48.550Z,98816.04
2022-07-29T14:46:17.327Z,98815.23
2022-07-29T14:48:46.203Z,98817.75
2022-07-29T14:51:14.956Z,98816.76
2022-07-29T14:53:43.456Z,98825.80
2022-07-29T14:56:35.569Z,98823.86
2022-07-29T14:59:02.141Z,98820.87
2022-07-29T15:01:31.315Z,98822.64
2022-07-29T15:04:01.953Z,98822.21
2022-07-29T15:06:30.742Z,98822.68
2022-07-29T15:08:59.878Z,98824.92
2022-07-29T15:11:28.363Z,98821.50
2022-07-29T15:13:57.178Z,98822.28
2022-07-29T15:16:26.076Z,98819.19
2022-07-29T15:18:54.728Z,98818.48
2022-07-29T15:21:23.733Z,98821.20
2022-07-29T15:23:52.890Z,98821.63
2022-07-29T15:26:21.614Z,98816.85
2022-07-29T15:28:51.653Z,98817.66
2022-07-29T15:31:21.982Z,98818.96
2022-07-29T15:33:56.947Z,98816.38
2022-07-29T15:36:50.672Z,98812.86
2022-07-29T15:39:15.886Z,98803.77
2022-07-29T15:41:44.808Z,98805.92
2022-07-29T15:44:13.529Z,98803.83
2022-07-29T15:47:01.754Z,98804.00
2022-07-29T15:49:48.056Z,98808.38
2022-07-29T15:52:25.417Z,98796.41
2022-07-29T15:54:57.278Z,98791.21
2022-07-29T15:57:26.535Z,98784.09
2022-07-29T15:59:55.547Z,98787.85
2022-07-29T16:02:24.292Z,98791.75
2022-07-29T16:04:53.290Z,98793.05
2022-07-29T16:07:22.454Z,98796.20
2022-07-29T16:09:53.227Z,98791.94
2022-07-29T16:12:25.423Z,98793.25
2022-07-29T16:14:54.256Z,98794.61
2022-07-29T16:17:23.226Z,98787.58
2022-07-29T16:19:53.847Z,98783.37
2022-07-29T16:22:22.907Z,98785.66
2022-07-29T16:24:51.419Z,98785.40
2022-07-29T16:27:25.393Z,98786.19
2022-07-29T16:29:57.934Z,98785.36
2022-07-29T16:32:27.172Z,98787.98
2022-07-29T16:34:55.965Z,98785.77
2022-07-29T16:37:24.742Z,98783.30
2022-07-29T16:39:57.748Z,98786.01
2022-07-29T16:42:45.425Z,98784.86
2022-07-29T16:45:17.975Z,98783.69
2022-07-29T16:47:48.902Z,98781.04
2022-07-29T16:50:19.054Z,98782.05
2022-07-29T16:52:47.595Z,98785.33
2022-07-29T16:55:16.145Z,98788.52
2022-07-29T16:57:46.087Z,98789.83
2022-07-29T17:00:16.850Z,98792.64
2022-07-29T17:02:56.255Z,98789.20
2022-07-29T17:05:52.226Z,98791.33
2022-07-29T17:08:41.701Z,98788.70
2022-07-29T17:11:53.623Z,98786.55
2022-07-29T17:14:44.651Z,98788.77
2022-07-29T17:17:38.776Z,98789.55
2022-07-29T17:20:29.014Z,98789.17
2022-07-29T17:23:26.660Z,98790.34
2022-07-29T17:26:21.929Z,98793.99
2022-07-29T17:29:25.506Z,98792.89
2022-07-29T17:32:18.846Z,98798.42
2022-07-29T17:35:28.904Z,98793.46
2022-07-29T17:38:28.051Z,98794.98
2022-07-29T17:41:12.807Z,98795.77
2022-07-29T17:43:42.577Z,98792.14
2022-07-29T17:46:14.199Z,98786.46
2022-07-29T17:48:44.622Z,98787.92
2022-07-29T17:51:13.673Z,98786.70
2022-07-29T17:53:42.389Z,98782.33
2022-07-29T17:56:11.401Z,98784.83
2022-07-29T17:58:41.360Z,98786.30
2022-07-29T18:01:11.329Z,98787.23
2022-07-29T18:03:41.144Z,98788.86
2022-07-29T18:06:14.702Z,98794.61
2022-07-29T18:08:48.331Z,98792.63
2022-07-29T18:11:17.365Z,98788.65
2022-07-29T18:13:46.006Z,98789.09
2022-07-29T18:16:15.133Z,98787.98
2022-07-29T18:18:45.267Z,98783.95
2022-07-29T18:21:13.869Z,98781.67
2022-07-29T18:23:42.842Z,98782.40
2022-07-29T18:26:12.012Z,98782.26
2022-07-29T18:28:40.481Z,98780.77
2022-07-29T18:31:09.713Z,98782.15
2022-07-29T18:33:40.743Z,98784.60
2022-07-29T18:36:11.696Z,98783.23
2022-07-29T18:38:41.750Z,98785.80
2022-07-29T18:41:11.744Z,98785.16
2022-07-29T18:43:40.237Z,98783.42
2022-07-29T18:46:09.553Z,98777.96
2022-07-29T18:48:39.132Z,98777.90
2022-07-29T18:51:09.958Z,98778.77
2022-07-29T18:53:42.148Z,98776.80
2022-07-29T18:56:11.255Z,98777.44
2022-07-29T18:58:40.114Z,98777.89
2022-07-29T19:01:09.910Z,98776.79
2022-07-29T19:03:42.499Z,98780.30
2022-07-29T19:06:12.142Z,98786.28
2022-07-29T19:08:40.728Z,98784.61
2022-07-29T19:11:10.102Z,98784.67
2022-07-29T19:13:39.563Z,98790.95
2022-07-29T19:16:12.103Z,98788.02
2022-07-29T19:18:41.739Z,98781.89
2022-07-29T19:21:11.393Z,98779.16
2022-07-29T19:24:01.501Z,98780.82
2022-07-29T19:26:29.300Z,98778.42
2022-07-29T19:28:58.160Z,98783.13
2022-07-29T19:31:26.755Z,98784.84
2022-07-29T19:33:55.849Z,98787.39
2022-07-29T19:36:27.243Z,98784.32
2022-07-29T19:38:55.964Z,98784.44
2022-07-29T19:41:25.235Z,98783.16
2022-07-29T19:43:54.879Z,98782.35
2022-07-29T19:46:24.785Z,98777.95
2022-07-29T19:48:54.047Z,98779.23
2022-07-29T19:51:24.532Z,98780.10
2022-07-29T19:53:53.459Z,98779.85
2022-07-29T19:56:30.713Z,98782.58
2022-07-29T19:58:59.298Z,98779.88
2022-07-29T20:01:28.326Z,98780.55
2022-07-29T20:03:57.285Z,98784.59
2022-07-29T20:06:27.587Z,98784.81
2022-07-29T20:08:58.727Z,98783.56
2022-07-29T20:11:30.334Z,98783.84
2022-07-29T20:13:59.477Z,98784.20
2022-07-29T20:16:28.067Z,98778.98
2022-07-29T20:18:56.707Z,98782.67
2022-07-29T20:21:27.150Z,98783.59
2022-07-29T20:23:58.959Z,98791.20
2022-07-29T20:26:28.206Z,98789.75
2022-07-29T20:28:56.814Z,98788.52
2022-07-29T20:31:25.503Z,98787.86
2022-07-29T20:33:54.722Z,98786.59
2022-07-29T20:36:23.362Z,98779.05
2022-07-29T20:38:52.223Z,98785.46
2022-07-29T20:41:21.303Z,98784.16
2022-07-29T20:43:53.454Z,98784.69
2022-07-29T20:46:23.356Z,98782.10
2022-07-29T20:48:54.929Z,98785.83
2022-07-29T20:51:24.092Z,98787.42
2022-07-29T20:53:52.884Z,98789.66
2022-07-29T20:56:21.589Z,98784.64
2022-07-29T20:58:51.341Z,98784.44
2022-07-29T21:01:20.280Z,98786.76
2022-07-29T21:03:48.861Z,98785.73
2022-07-29T21:06:18.051Z,98782.66
2022-07-29T21:08:46.929Z,98779.39
2022-07-29T21:11:15.922Z,98772.34
2022-07-29T21:13:46.234Z,98769.61
2022-07-29T21:16:15.151Z,98767.36
2022-07-29T21:18:46.891Z,98775.56
2022-07-29T21:21:17.049Z,98777.23
2022-07-29T21:23:46.362Z,98782.90
2022-07-29T21:26:16.527Z,98779.62
2022-07-29T21:28:45.040Z,98780.17
2022-07-29T21:31:15.067Z,98779.58
2022-07-29T21:33:46.372Z,98778.31
2022-07-29T21:39:07.704Z,98781.48
2022-07-29T21:41:36.831Z,98778.93
2022-07-29T21:44:05.442Z,98769.22
2022-07-29T21:46:34.081Z,98770.71
2022-07-29T21:49:03.349Z,98771.95
2022-07-29T21:51:31.771Z,98773.92
2022-07-29T21:54:00.474Z,98771.73
2022-07-29T21:56:29.917Z,98767.89
2022-07-29T21:59:00.462Z,98759.86
2022-07-29T22:01:29.226Z,98763.97
2022-07-29T22:04:08.994Z,98761.86
2022-07-29T22:06:37.811Z,98761.20
2022-07-29T22:09:06.450Z,98763.29
2022-07-29T22:11:37.205Z,98771.89
2022-07-29T22:14:08.074Z,98781.89
2022-07-29T22:16:37.221Z,98776.04
2022-07-29T22:19:05.983Z,98778.45
2022-07-29T22:21:34.945Z,98771.62
2022-07-29T22:24:03.989Z,98763.40
2022-07-29T22:26:33.773Z,98763.66
2022-07-29T22:29:02.669Z,98768.13
2022-07-29T22:31:32.147Z,98766.34
2022-07-29T22:34:00.955Z,98763.84
2022-07-29T22:36:29.646Z,98759.45
2022-07-29T22:38:58.810Z,98753.55
2022-07-29T22:41:27.406Z,98749.77
2022-07-29T22:43:55.954Z,98747.69
2022-07-29T22:46:25.217Z,98743.44
2022-07-29T22:48:54.267Z,98741.55
2022-07-29T22:51:23.183Z,98736.34
2022-07-29T22:53:52.646Z,98734.70
2022-07-29T22:56:21.729Z,98736.52
2022-07-29T22:58:50.561Z,98734.29
2022-07-29T23:01:37.586Z,98727.33
2022-07-29T23:04:07.618Z,98721.60
2022-07-29T23:06:36.852Z,98728.74
2022-07-29T23:09:05.541Z,98728.88
2022-07-29T23:11:34.399Z,98729.64
2022-07-29T23:14:03.182Z,98726.34
2022-07-29T23:16:31.771Z,98711.73
2022-07-29T23:19:02.003Z,98706.23
2022-07-29T23:21:30.986Z,98704.42
2022-07-29T23:23:59.565Z,98700.95
2022-07-29T23:26:28.565Z,98696.73
2022-07-29T23:28:57.300Z,98695.48
2022-07-29T23:31:26.035Z,98696.87
2022-07-29T23:33:54.879Z,98702.21
2022-07-29T23:36:24.218Z,98700.69
2022-07-29T23:38:52.844Z,98693.23
2022-07-29T23:41:24.249Z,98691.80
2022-07-29T23:43:53.383Z,98691.84
2022-07-29T23:46:24.002Z,98688.43
2022-07-29T23:48:52.913Z,98683.74
2022-07-29T23:51:22.189Z,98686.33
2022-07-29T23:53:53.279Z,98688.43
2022-07-29T23:56:23.867Z,98685.45
2022-07-29T23:58:52.377Z,98686.84
